createdAt,value
2022-11-06T00:02:14.793Z,15.78
2022-11-06T00:05:38.917Z,15.67
2022-11-06T00:08:42.617Z,15.16
2022-11-06T00:11:48.641Z,15.38
2022-11-06T00:14:52.388Z,15.18
2022-11-06T00:17:56.216Z,15.34
2022-11-06T00:20:59.821Z,15.16
2022-11-06T00:24:05.564Z,14.76
2022-11-06T00:27:10.759Z,14.97
2022-11-06T00:30:14.519Z,14.93
2022-11-06T00:33:18.249Z,15.35
2022-11-06T00:36:24.598Z,15.39
2022-11-06T00:39:28.326Z,15.00
2022-11-06T00:42:33.838Z,15.04
2022-11-06T00:45:37.575Z,15.08
2022-11-06T00:48:43.085Z,14.73
2022-11-06T00:51:46.833Z,14.96
2022-11-06T00:54:50.492Z,15.06
2022-11-06T00:57:55.562Z,15.06
2022-11-06T01:01:07.756Z,15.34
2022-11-06T01:04:14.777Z,15.31
2022-11-06T01:07:18.898Z,15.50
2022-11-06T01:10:22.629Z,15.66
2022-11-06T01:13:27.771Z,15.63
2022-11-06T01:16:32.380Z,15.60
2022-11-06T01:19:35.925Z,15.50
2022-11-06T01:22:39.652Z,15.13
2022-11-06T01:25:43.499Z,15.08
2022-11-06T01:28:48.925Z,15.27
2022-11-06T01:31:52.731Z,15.44
2022-11-06T01:34:56.428Z,15.37
2022-11-06T01:38:00.045Z,15.35
2022-11-06T01:41:03.759Z,15.08
2022-11-06T01:44:47.218Z,15.23
2022-11-06T01:47:51.196Z,15.43
2022-11-06T01:50:58.168Z,15.56
2022-11-06T01:54:04.689Z,15.46
2022-11-06T01:57:08.922Z,15.43
2022-11-06T02:00:15.393Z,15.52
2022-11-06T02:03:19.964Z,15.54
2022-11-06T02:06:24.052Z,15.58
2022-11-06T02:09:28.288Z,15.41
2022-11-06T02:12:43.478Z,15.35
2022-11-06T02:15:54.084Z,15.28
2022-11-06T02:19:09.574Z,14.96
2022-11-06T02:22:27.885Z,15.28
2022-11-06T02:25:43.732Z,15.34
2022-11-06T02:28:54.966Z,15.38
2022-11-06T02:32:05.529Z,15.28
2022-11-06T02:35:19.738Z,15.32
2022-11-06T02:38:27.725Z,14.85
2022-11-06T02:41:34.197Z,14.85
2022-11-06T02:44:40.796Z,15.04
2022-11-06T02:47:46.438Z,15.13
2022-11-06T02:50:52.537Z,15.04
2022-11-06T02:54:00.501Z,15.13
2022-11-06T02:57:10.032Z,15.16
2022-11-06T03:00:18.072Z,15.14
2022-11-06T03:03:25.727Z,15.04
2022-11-06T03:06:34.405Z,15.04
2022-11-06T03:09:38.200Z,14.92
2022-11-06T03:12:54.728Z,15.16
2022-11-06T03:16:05.793Z,15.23
2022-11-06T03:19:20.553Z,15.13
2022-11-06T03:22:32.393Z,15.09
2022-11-06T03:25:43.580Z,14.93
2022-11-06T03:28:53.099Z,15.08
2022-11-06T03:32:01.317Z,14.98
2022-11-06T03:35:13.677Z,14.96
2022-11-06T03:38:21.894Z,15.12
2022-11-06T03:41:31.426Z,14.85
2022-11-06T03:44:40.963Z,14.64
2022-11-06T03:47:49.355Z,14.95
2022-11-06T03:51:02.258Z,14.99
2022-11-06T03:54:08.332Z,14.88
2022-11-06T03:57:15.927Z,14.91
2022-11-06T04:00:21.236Z,14.77
2022-11-06T04:03:32.163Z,14.74
2022-11-06T04:06:42.000Z,14.87
2022-11-06T04:10:17.828Z,14.91
2022-11-06T04:13:41.585Z,15.07
2022-11-06T04:16:49.909Z,15.07
2022-11-06T04:19:58.978Z,14.58
2022-11-06T04:23:10.764Z,14.40
2022-11-06T04:26:37.795Z,13.79
2022-11-06T04:30:04.245Z,13.65
2022-11-06T04:33:15.470Z,14.33
2022-11-06T04:36:29.507Z,14.26
2022-11-06T04:39:41.730Z,14.40
2022-11-06T04:42:52.632Z,14.47
2022-11-06T04:45:59.318Z,14.36
2022-11-06T04:49:05.628Z,14.45
2022-11-06T04:52:15.635Z,14.46
2022-11-06T04:55:19.478Z,14.66
2022-11-06T04:58:23.204Z,14.71
2022-11-06T05:01:27.817Z,14.72
2022-11-06T05:04:32.627Z,14.76
2022-11-06T05:07:37.779Z,14.66
2022-11-06T05:10:41.420Z,14.40
2022-11-06T05:13:45.538Z,14.65
2022-11-06T05:16:49.217Z,14.65
2022-11-06T05:19:52.813Z,14.50
2022-11-06T05:23:00.739Z,14.53
2022-11-06T05:26:04.718Z,14.60
2022-11-06T05:29:08.280Z,14.62
2022-11-06T05:32:11.996Z,14.73
2022-11-06T05:35:15.647Z,14.84
2022-11-06T05:38:20.914Z,14.66
2022-11-06T05:41:24.647Z,14.60
2022-11-06T05:44:28.321Z,14.72
2022-11-06T05:47:32.067Z,14.78
2022-11-06T05:50:35.886Z,15.10
2022-11-06T05:53:41.968Z,15.27
2022-11-06T05:56:45.725Z,15.32
2022-11-06T05:59:49.574Z,15.30
2022-11-06T06:02:53.521Z,15.22
2022-11-06T06:05:57.488Z,15.21
2022-11-06T06:09:02.669Z,15.10
2022-11-06T06:12:07.106Z,15.27
2022-11-06T06:15:14.239Z,15.02
2022-11-06T06:18:17.938Z,15.21
2022-11-06T06:21:21.536Z,15.41
2022-11-06T06:24:26.783Z,15.11
2022-11-06T06:27:31.388Z,15.47
2022-11-06T06:30:36.131Z,15.50
2022-11-06T06:33:39.817Z,15.64
2022-11-06T06:36:43.626Z,15.65
2022-11-06T06:39:48.769Z,15.66
2022-11-06T06:42:52.612Z,15.62
2022-11-06T06:45:59.460Z,15.58
2022-11-06T06:49:03.328Z,15.58
2022-11-06T06:52:08.117Z,15.76
2022-11-06T06:55:13.305Z,15.17
2022-11-06T06:58:18.176Z,15.60
2022-11-06T07:01:22.121Z,15.68
2022-11-06T07:04:25.949Z,16.00
2022-11-06T07:07:29.779Z,15.88
2022-11-06T07:10:35.128Z,16.13
2022-11-06T07:13:39.053Z,15.99
2022-11-06T07:16:43.073Z,16.01
2022-11-06T07:19:47.145Z,16.20
2022-11-06T07:22:51.099Z,15.96
2022-11-06T07:25:56.750Z,16.31
2022-11-06T07:29:00.528Z,16.45
2022-11-06T07:32:04.408Z,16.42
2022-11-06T07:35:09.139Z,16.56
2022-11-06T07:38:13.352Z,16.72
2022-11-06T07:41:19.809Z,16.17
2022-11-06T07:44:23.506Z,16.65
2022-11-06T07:47:27.858Z,16.85
2022-11-06T07:50:32.616Z,16.77
2022-11-06T07:53:37.035Z,16.66
2022-11-06T07:56:42.285Z,16.63
2022-11-06T07:59:45.965Z,16.58
2022-11-06T08:02:53.628Z,16.70
2022-11-06T08:05:57.895Z,16.51
2022-11-06T08:09:01.829Z,16.43
2022-11-06T08:12:10.588Z,16.67
2022-11-06T08:15:14.391Z,16.69
2022-11-06T08:18:18.528Z,16.48
2022-11-06T08:21:22.339Z,16.25
2022-11-06T08:24:26.168Z,16.28
2022-11-06T08:27:31.410Z,16.03
2022-11-06T08:30:35.387Z,15.96
2022-11-06T08:33:40.900Z,16.16
2022-11-06T08:36:49.715Z,16.07
2022-11-06T08:39:53.625Z,16.13
2022-11-06T08:43:01.958Z,15.86
2022-11-06T08:46:06.385Z,15.94
2022-11-06T08:49:11.335Z,16.03
2022-11-06T08:52:15.077Z,16.34
2022-11-06T08:55:19.189Z,16.51
2022-11-06T08:58:24.433Z,16.40
2022-11-06T09:01:31.146Z,16.12
2022-11-06T09:04:40.116Z,16.26
2022-11-06T09:07:45.025Z,16.20
2022-11-06T09:10:48.986Z,16.57
2022-11-06T09:13:54.264Z,16.62
2022-11-06T09:16:58.689Z,16.71
2022-11-06T09:20:02.490Z,16.95
2022-11-06T09:23:13.360Z,16.87
2022-11-06T09:26:17.899Z,16.91
2022-11-06T09:29:23.126Z,17.05
2022-11-06T09:32:27.029Z,17.14
2022-11-06T09:35:32.704Z,17.18
2022-11-06T09:38:36.590Z,17.24
2022-11-06T09:41:53.632Z,17.19
2022-11-06T09:45:09.478Z,16.63
2022-11-06T09:48:21.959Z,16.37
2022-11-06T09:51:33.155Z,16.39
2022-11-06T09:54:43.714Z,16.48
2022-11-06T09:57:52.762Z,15.93
2022-11-06T10:01:01.213Z,15.86
2022-11-06T10:04:06.230Z,15.76
2022-11-06T10:07:21.081Z,15.84
2022-11-06T10:10:32.146Z,15.95
2022-11-06T10:13:55.909Z,15.68
2022-11-06T10:17:16.106Z,15.94
2022-11-06T10:20:27.275Z,15.90
2022-11-06T10:23:45.778Z,16.09
2022-11-06T10:26:58.018Z,16.18
2022-11-06T10:30:11.064Z,16.06
2022-11-06T10:33:30.285Z,16.02
2022-11-06T10:36:52.749Z,16.39
2022-11-06T10:40:05.839Z,16.41
2022-11-06T10:43:23.999Z,16.43
2022-11-06T10:46:36.346Z,16.56
2022-11-06T10:49:48.268Z,16.49
2022-11-06T10:53:00.626Z,16.70
2022-11-06T10:56:21.373Z,16.53
2022-11-06T10:59:29.143Z,16.60
2022-11-06T11:02:37.034Z,16.52
2022-11-06T11:05:46.835Z,16.51
2022-11-06T11:08:56.108Z,16.90
2022-11-06T11:12:00.736Z,16.93
2022-11-06T11:15:16.846Z,16.94
2022-11-06T11:18:31.185Z,17.03
2022-11-06T11:21:39.348Z,17.08
2022-11-06T11:25:03.814Z,17.39
2022-11-06T11:28:22.174Z,17.48
2022-11-06T11:31:32.145Z,17.69
2022-11-06T11:34:40.620Z,17.74
2022-11-06T11:37:49.558Z,17.71
2022-11-06T11:41:06.944Z,17.80
2022-11-06T11:44:17.985Z,18.01
2022-11-06T11:47:27.178Z,18.14
2022-11-06T11:50:38.207Z,18.07
2022-11-06T11:53:51.870Z,18.18
2022-11-06T11:57:07.759Z,17.62
2022-11-06T12:00:20.606Z,17.97
2022-11-06T12:03:29.009Z,17.91
2022-11-06T12:06:37.094Z,17.85
2022-11-06T12:09:55.049Z,17.90
2022-11-06T12:13:01.888Z,17.66
2022-11-06T12:16:13.945Z,17.38
2022-11-06T12:19:24.685Z,17.21
2022-11-06T12:22:35.304Z,17.24
2022-11-06T12:25:52.005Z,17.45
2022-11-06T12:29:04.887Z,17.32
2022-11-06T12:32:21.278Z,17.25
2022-11-06T12:35:29.557Z,17.24
2022-11-06T12:38:44.469Z,16.91
2022-11-06T12:41:53.330Z,17.13
2022-11-06T12:45:00.219Z,17.10
2022-11-06T12:48:13.100Z,16.97
2022-11-06T12:51:26.414Z,17.15
2022-11-06T12:54:46.422Z,17.10
2022-11-06T12:58:06.637Z,17.37
2022-11-06T13:01:20.748Z,17.46
2022-11-06T13:04:38.324Z,17.34
2022-11-06T13:08:14.867Z,17.07
2022-11-06T13:11:32.037Z,17.32
2022-11-06T13:14:43.374Z,17.38
2022-11-06T13:17:53.731Z,17.44
2022-11-06T13:21:01.125Z,17.00
2022-11-06T13:24:12.568Z,17.07
2022-11-06T13:27:26.275Z,17.38
2022-11-06T13:30:33.656Z,17.17
2022-11-06T13:33:43.727Z,16.76
2022-11-06T13:36:48.428Z,17.00
2022-11-06T13:40:02.972Z,17.06
2022-11-06T13:43:09.394Z,16.89
2022-11-06T13:46:26.202Z,17.10
2022-11-06T13:49:38.539Z,17.23
2022-11-06T13:52:50.883Z,17.26
2022-11-06T13:56:07.334Z,17.60
2022-11-06T13:59:32.782Z,17.81
2022-11-06T14:03:02.285Z,17.93
2022-11-06T14:06:08.365Z,17.86
2022-11-06T14:09:18.227Z,18.01
2022-11-06T14:12:24.625Z,18.02
2022-11-06T14:15:37.900Z,18.02
2022-11-06T14:18:43.618Z,17.93
2022-11-06T14:21:49.869Z,17.82
2022-11-06T14:24:59.970Z,17.71
2022-11-06T14:28:07.615Z,17.64
2022-11-06T14:31:14.807Z,17.45
2022-11-06T14:34:31.883Z,17.40
2022-11-06T14:37:50.228Z,17.34
2022-11-06T14:40:54.108Z,17.13
2022-11-06T14:43:59.696Z,16.98
2022-11-06T14:47:07.097Z,17.03
2022-11-06T14:50:27.269Z,17.03
2022-11-06T14:53:36.004Z,16.71
2022-11-06T14:56:40.377Z,16.77
2022-11-06T14:59:44.674Z,16.77
2022-11-06T15:02:49.934Z,16.60
2022-11-06T15:06:01.089Z,16.71
2022-11-06T15:09:06.596Z,16.70
2022-11-06T15:12:10.257Z,16.54
2022-11-06T15:15:20.408Z,16.69
2022-11-06T15:18:26.456Z,16.68
2022-11-06T15:21:34.438Z,16.46
2022-11-06T15:24:43.014Z,16.45
2022-11-06T15:27:54.168Z,16.39
2022-11-06T15:31:02.767Z,16.52
2022-11-06T15:34:14.490Z,16.57
2022-11-06T15:37:23.126Z,16.52
2022-11-06T15:40:30.119Z,16.52
2022-11-06T15:43:37.648Z,16.45
2022-11-06T15:46:54.579Z,16.36
2022-11-06T15:50:15.688Z,16.45
2022-11-06T15:53:23.847Z,16.57
2022-11-06T15:56:33.375Z,16.51
2022-11-06T15:59:37.106Z,16.43
2022-11-06T16:02:50.878Z,16.32
2022-11-06T16:05:56.405Z,16.16
2022-11-06T16:09:03.548Z,16.22
2022-11-06T16:12:08.026Z,16.46
2022-11-06T16:15:44.826Z,16.46
2022-11-06T16:18:49.595Z,16.55
2022-11-06T16:21:57.486Z,16.62
2022-11-06T16:25:05.399Z,16.65
2022-11-06T16:28:17.565Z,16.51
2022-11-06T16:31:24.675Z,16.50
2022-11-06T16:34:44.190Z,16.52
2022-11-06T16:37:48.055Z,16.42
2022-11-06T16:40:54.505Z,16.47
2022-11-06T16:44:27.807Z,16.54
2022-11-06T16:47:34.433Z,16.48
2022-11-06T16:50:46.439Z,16.42
2022-11-06T16:53:56.378Z,16.34
2022-11-06T16:57:10.681Z,16.47
2022-11-06T17:00:26.047Z,16.32
2022-11-06T17:03:36.319Z,16.33
2022-11-06T17:06:40.166Z,16.16
2022-11-06T17:09:44.295Z,16.29
2022-11-06T17:12:49.485Z,16.41
2022-11-06T17:15:56.619Z,16.38
2022-11-06T17:19:00.498Z,16.43
2022-11-06T17:22:07.145Z,16.41
2022-11-06T17:25:11.132Z,16.34
2022-11-06T17:28:16.758Z,16.44
2022-11-06T17:31:21.760Z,16.49
2022-11-06T17:34:25.596Z,16.59
2022-11-06T17:37:29.489Z,16.62
2022-11-06T17:40:33.354Z,16.49
2022-11-06T17:43:38.565Z,16.63
2022-11-06T17:46:44.816Z,16.69
2022-11-06T17:49:49.044Z,16.68
2022-11-06T17:52:52.846Z,16.65
2022-11-06T17:55:56.698Z,16.50
2022-11-06T17:59:01.929Z,16.43
2022-11-06T18:02:06.051Z,16.50
2022-11-06T18:05:10.610Z,16.41
2022-11-06T18:08:15.918Z,16.21
2022-11-06T18:11:20.033Z,16.40
2022-11-06T18:14:26.654Z,16.47
2022-11-06T18:17:30.305Z,16.50
2022-11-06T18:20:34.068Z,16.65
2022-11-06T18:23:37.915Z,16.60
2022-11-06T18:26:43.089Z,16.66
2022-11-06T18:29:48.306Z,16.61
2022-11-06T18:32:52.098Z,16.67
2022-11-06T18:35:55.886Z,16.74
2022-11-06T18:38:59.805Z,16.67
2022-11-06T18:42:04.213Z,16.70
2022-11-06T18:45:10.328Z,16.49
2022-11-06T18:48:19.796Z,16.43
2022-11-06T18:51:35.029Z,16.55
2022-11-06T18:54:39.958Z,16.49
2022-11-06T18:57:43.911Z,16.39
2022-11-06T19:00:49.148Z,16.53
2022-11-06T19:03:54.179Z,16.66
2022-11-06T19:06:57.867Z,16.66
2022-11-06T19:10:05.177Z,16.49
2022-11-06T19:13:08.837Z,16.43
2022-11-06T19:16:14.591Z,16.57
2022-11-06T19:19:25.247Z,16.45
2022-11-06T19:22:31.278Z,16.44
2022-11-06T19:25:35.157Z,16.44
2022-11-06T19:28:38.926Z,16.40
2022-11-06T19:31:44.207Z,16.42
2022-11-06T19:34:48.184Z,16.25
2022-11-06T19:37:52.470Z,16.27
2022-11-06T19:40:57.880Z,16.36
2022-11-06T19:44:01.788Z,16.41
2022-11-06T19:47:07.032Z,16.63
2022-11-06T19:50:11.394Z,16.63
2022-11-06T19:53:18.549Z,16.69
2022-11-06T19:56:23.437Z,16.78
2022-11-06T19:59:27.066Z,16.83
2022-11-06T20:02:32.555Z,16.73
2022-11-06T20:05:36.729Z,16.53
2022-11-06T20:08:40.645Z,16.51
2022-11-06T20:11:44.678Z,16.66
2022-11-06T20:14:49.375Z,16.66
2022-11-06T20:17:54.608Z,16.48
2022-11-06T20:21:02.119Z,16.69
2022-11-06T20:24:08.545Z,16.71
2022-11-06T20:27:12.858Z,16.60
2022-11-06T20:30:17.243Z,16.12
2022-11-06T20:33:22.588Z,16.42
2022-11-06T20:36:28.144Z,16.51
2022-11-06T20:39:32.260Z,16.61
2022-11-06T20:42:36.135Z,16.66
2022-11-06T20:45:41.141Z,16.50
2022-11-06T20:48:47.257Z,16.51
2022-11-06T20:52:12.743Z,16.33
2022-11-06T20:55:15.177Z,16.39
2022-11-06T20:58:18.854Z,16.39
2022-11-06T21:01:24.421Z,16.39
2022-11-06T21:04:29.833Z,16.39
2022-11-06T21:07:35.387Z,16.34
2022-11-06T21:10:39.749Z,16.40
2022-11-06T21:13:44.297Z,16.43
2022-11-06T21:16:48.317Z,16.48
2022-11-06T21:19:53.744Z,16.43
2022-11-06T21:22:57.738Z,16.51
2022-11-06T21:26:06.900Z,16.48
2022-11-06T21:29:12.213Z,16.49
2022-11-06T21:32:15.988Z,16.60
2022-11-06T21:35:21.352Z,16.64
2022-11-06T21:38:25.046Z,16.62
2022-11-06T21:41:33.236Z,16.62
2022-11-06T21:44:37.172Z,16.70
2022-11-06T21:47:40.725Z,16.68
2022-11-06T21:50:45.968Z,16.67
2022-11-06T21:54:08.245Z,16.66
2022-11-06T21:57:12.155Z,16.68
2022-11-06T22:00:16.726Z,16.68
2022-11-06T22:03:20.814Z,16.74
2022-11-06T22:06:27.723Z,16.73
2022-11-06T22:09:31.553Z,16.75
2022-11-06T22:12:36.154Z,16.79
2022-11-06T22:15:39.723Z,16.83
2022-11-06T22:18:43.688Z,16.89
2022-11-06T22:21:48.719Z,16.97
2022-11-06T22:24:52.549Z,17.00
2022-11-06T22:27:56.108Z,16.86
2022-11-06T22:30:59.968Z,16.69
2022-11-06T22:34:03.974Z,16.72
2022-11-06T22:37:09.292Z,16.73
2022-11-06T22:40:13.685Z,16.02
2022-11-06T22:43:17.391Z,16.36
2022-11-06T22:46:23.018Z,16.18
2022-11-06T22:49:27.259Z,16.51
2022-11-06T22:52:32.267Z,16.51
2022-11-06T22:55:36.084Z,16.11
2022-11-06T22:58:39.804Z,15.96
2022-11-06T23:01:44.066Z,15.80
2022-11-06T23:04:47.596Z,16.16
2022-11-06T23:07:52.917Z,16.21
2022-11-06T23:10:57.598Z,16.26
2022-11-06T23:14:07.482Z,16.38
2022-11-06T23:17:12.484Z,16.55
2022-11-06T23:20:17.125Z,16.44
2022-11-06T23:23:22.255Z,16.60
2022-11-06T23:26:26.073Z,16.62
2022-11-06T23:29:29.793Z,16.65
2022-11-06T23:32:35.844Z,16.68
2022-11-06T23:35:39.476Z,16.65
2022-11-06T23:38:45.629Z,16.59
2022-11-06T23:41:49.338Z,16.63
2022-11-06T23:45:22.023Z,16.66
2022-11-06T23:48:25.687Z,16.57
2022-11-06T23:51:29.587Z,16.52
2022-11-06T23:54:34.832Z,16.41
2022-11-06T23:57:38.779Z,16.56
